Terminal Aerodrome Forecast
Issued by NWS

Home | Current Version | Previous Version | Text Only | Print | Product List | Glossary On
Versions: 1 2 3 4 5 6 7 8 9 10 11 12 13 14 15 16 17 18 19 20 21 22 23 24 25
000
FTUS42 KMHX 171700 RRA
TAFISO
TAF
KISO 171742Z 1718/1818 04005KT P6SM VCSH SCT025 BKN050
     FM180600 03005KT 5SM BR SCT007 BKN025
     FM181400 04005KT P6SM BKN035
      AMD LTD TO CLD VIS AND WIND=

USA.gov is the U.S. government's official web portal to all federal, state and local government web resources and services.